Temp: 5.5°C   Baro: 1027.0mb
  Wind: 6.0mph   Dir: WNW (295°)
  Rain: 0.0mm (0.0mm/hr)
  Humidity: 88%

Historic data

Bath Spa Weather Station Historical Data
Daily Summary for November 26, 2022 Units:  Metric    English   Both
Daily Weekly Monthly Yearly Custom
  High: Low: Average:
Temperature: 12.3 °C 8.1 °C 10.4 °C
Dew Point: 11.2 °C 6.2 °C 8.6 °C
Humidity: 93% 82% 88%
Wind Speed: 26.7km/h 0km/h 8.2km/h
Wind Gust: 49.9km/h - -
Wind- - South
Pressure: 1024.3 hPa 1013.4 hPa -
Precipitation: 6.1 mm    
Historical Graphs
 
 
Tabular Data for November 26, 2022
Time Temperature Dew Point Pressure Wind Wind Speed Wind Gust Humidity Rainfall Rate (Hourly) solar
00:09 8.5 °C 6.8 °C 1023.9 hPa WSW 1.6 km/h 4.8 km/h 89% 0 mm 0 W/m2
00:14 8.5 °C 6.6 °C 1023.9 hPa WSW 3.5 km/h 8 km/h 88% 0 mm 0 W/m2
00:19 8.6 °C 6.7 °C 1023.9 hPa WSW 4.5 km/h 8 km/h 88% 0 mm 0 W/m2
00:24 8.6 °C 6.7 °C 1023.9 hPa WSW 2.9 km/h 6.4 km/h 88% 0 mm 0 W/m2
00:29 8.5 °C 6.6 °C 1023.9 hPa WSW 2.1 km/h 4.8 km/h 88% 0 mm 0 W/m2
00:34 8.5 °C 6.6 °C 1023.9 hPa WSW 3.1 km/h 6.4 km/h 88% 0 mm 0 W/m2
00:39 8.4 °C 6.6 °C 1023.9 hPa WSW 4.7 km/h 8 km/h 88% 0 mm 0 W/m2
00:44 8.5 °C 6.6 °C 1023.9 hPa WSW 4.2 km/h 8 km/h 88% 0 mm 0 W/m2
00:49 8.4 °C 6.6 °C 1023.9 hPa West 4.3 km/h 9.7 km/h 88% 0 mm 0 W/m2
00:54 8.5 °C 6.6 °C 1023.9 hPa West 4.3 km/h 8 km/h 88% 0 mm 0 W/m2
00:59 8.5 °C 6.6 °C 1023.9 hPa West 4.7 km/h 8 km/h 88% 0 mm 0 W/m2
01:04 8.4 °C 6.5 °C 1023.9 hPa WNW 5.1 km/h 8 km/h 88% 0 mm 0 W/m2
01:09 8.4 °C 6.5 °C 1024.3 hPa West 5.3 km/h 11.3 km/h 88% 0 mm 0 W/m2
01:14 8.4 °C 6.5 °C 1024.3 hPa West 5 km/h 9.7 km/h 88% 0 mm 0 W/m2
01:19 8.3 °C 6.4 °C 1024.3 hPa WSW 6.4 km/h 11.3 km/h 88% 0 mm 0 W/m2
01:24 8.3 °C 6.4 °C 1024.3 hPa WSW 4 km/h 12.9 km/h 88% 0 mm 0 W/m2
01:29 8.3 °C 6.4 °C 1023.9 hPa WSW 3.5 km/h 6.4 km/h 88% 0 mm 0 W/m2
01:34 8.3 °C 6.4 °C 1023.9 hPa WSW 4.2 km/h 8 km/h 88% 0 mm 0 W/m2
01:39 8.3 °C 6.3 °C 1023.9 hPa West 4.7 km/h 9.7 km/h 88% 0 mm 0 W/m2
01:44 8.2 °C 6.3 °C 1023.9 hPa West 3.9 km/h 6.4 km/h 88% 0 mm 0 W/m2
01:49 8.2 °C 6.3 °C 1023.9 hPa West 3.7 km/h 9.7 km/h 88% 0 mm 0 W/m2
01:54 8.2 °C 6.3 °C 1023.9 hPa West 4.2 km/h 9.7 km/h 88% 0 mm 0 W/m2
01:59 8.3 °C 6.4 °C 1023.9 hPa WSW 5.1 km/h 12.9 km/h 88% 0 mm 0 W/m2
02:04 8.3 °C 6.4 °C 1023.9 hPa WSW 2.7 km/h 9.7 km/h 88% 0 mm 0 W/m2
02:09 8.4 °C 6.5 °C 1023.9 hPa West 4 km/h 8 km/h 88% 0 mm 0 W/m2
02:14 8.4 °C 6.5 °C 1023.9 hPa West 3.5 km/h 4.8 km/h 88% 0 mm 0 W/m2
02:19 8.4 °C 6.5 °C 1023.9 hPa West 3.4 km/h 8 km/h 88% 0 mm 0 W/m2
02:24 8.4 °C 6.5 °C 1023.9 hPa West 1.3 km/h 4.8 km/h 88% 0 mm 0 W/m2
02:29 8.4 °C 6.5 °C 1023.9 hPa WSW 1.3 km/h 8 km/h 88% 0 mm 0 W/m2
02:34 8.6 °C 6.8 °C 1023.9 hPa SSW 1.9 km/h 8 km/h 88.4% 0 mm 0 W/m2
02:39 8.7 °C 6.8 °C 1023.9 hPa SSW 2.7 km/h 8 km/h 88% 0 mm 0 W/m2
02:44 8.7 °C 6.8 °C 1023.9 hPa SSW 2.6 km/h 6.4 km/h 88% 0 mm 0 W/m2
02:49 8.8 °C 6.9 °C 1023.9 hPa SSW 4.3 km/h 11.3 km/h 88% 0 mm 0 W/m2
02:53 8.9 °C 7 °C 1023.9 hPa SSW 2.7 km/h 8 km/h 88% 0 mm 0 W/m2
02:59 8.9 °C 7 °C 1023.9 hPa South 2.6 km/h 6.4 km/h 88% 0 mm 0 W/m2
03:04 8.9 °C 7 °C 1023.9 hPa SSW 1.9 km/h 4.8 km/h 88% 0 mm 0 W/m2
03:09 8.8 °C 6.9 °C 1023.9 hPa SSW 0.3 km/h 4.8 km/h 88% 0 mm 0 W/m2
03:14 8.7 °C 6.8 °C 1023.9 hPa Calm   1.6 km/h 88% 0 mm 0 W/m2
03:19 8.6 °C 6.7 °C 1023.9 hPa SSW 0.3 km/h 3.2 km/h 88% 0 mm 0 W/m2
03:24 8.5 °C 6.6 °C 1023.9 hPa SSW 0.3 km/h 1.6 km/h 88% 0 mm 0 W/m2
03:29 8.4 °C 6.5 °C 1023.9 hPa Calm   3.2 km/h 88% 0 mm 0 W/m2
03:34 8.3 °C 6.4 °C 1023.6 hPa Calm     88% 0 mm 0 W/m2
03:39 8.3 °C 6.3 °C 1023.6 hPa Calm     88% 0 mm 0 W/m2
03:44 8.2 °C 6.2 °C 1023.6 hPa SSW 0.8 km/h 3.2 km/h 88% 0 mm 0 W/m2
03:49 8.2 °C 6.5 °C 1023.6 hPa South 0.3 km/h 4.8 km/h 89% 0 mm 0 W/m2
03:54 8.2 °C 6.4 °C 1023.6 hPa South 0.3 km/h 3.2 km/h 89% 0 mm 0 W/m2
03:59 8.1 °C 6.4 °C 1023.6 hPa South 1.6 km/h 4.8 km/h 89% 0 mm 0 W/m2
04:04 8.3 °C 6.7 °C 1023.6 hPa South 2.7 km/h 6.4 km/h 89% 0 mm 0 W/m2
04:09 8.7 °C 7 °C 1023.6 hPa SW 4 km/h 9.7 km/h 89.2% 0 mm 0 W/m2
04:14 8.9 °C 7.2 °C 1023.6 hPa SSW 2.1 km/h 9.7 km/h 89% 0 mm 0 W/m2
04:19 9.2 °C 7.4 °C 1023.6 hPa SW 6.1 km/h 11.3 km/h 89% 0 mm 0 W/m2
04:24 9.3 °C 7.6 °C 1023.9 hPa SW 3.9 km/h 9.7 km/h 89% 0 mm 0 W/m2
04:29 9.4 °C 7.7 °C 1023.6 hPa SW 5.1 km/h 11.3 km/h 89% 0 mm 0 W/m2
04:34 9.3 °C 7.6 °C 1023.6 hPa WSW 3.4 km/h 8 km/h 89% 0 mm 0 W/m2
04:39 9.2 °C 7.6 °C 1023.6 hPa WSW 3.5 km/h 8 km/h 89% 0 mm 0 W/m2
04:44 9.2 °C 7.6 °C 1023.9 hPa WSW 2.7 km/h 8 km/h 89% 0 mm 0 W/m2
04:49 9.2 °C 7.5 °C 1023.9 hPa WSW 3.7 km/h 8 km/h 89% 0 mm 0 W/m2
04:54 9.2 °C 7.5 °C 1023.9 hPa WSW 1.4 km/h 6.4 km/h 89% 0 mm 0 W/m2
04:59 9.2 °C 7.5 °C 1023.6 hPa WSW 1.6 km/h 4.8 km/h 89% 0 mm 0 W/m2
05:04 9.2 °C 7.5 °C 1023.9 hPa WSW 1.9 km/h 4.8 km/h 89% 0 mm 0 W/m2
05:09 9.1 °C 7.4 °C 1023.9 hPa WSW 1.1 km/h 4.8 km/h 89% 0 mm 0 W/m2
05:14 9.1 °C 7.4 °C 1023.9 hPa WSW 2.4 km/h 4.8 km/h 89% 0 mm 0 W/m2
05:19 9.1 °C 7.4 °C 1023.9 hPa WSW 0.6 km/h 4.8 km/h 89% 0 mm 0 W/m2
05:24 8.9 °C 7.2 °C 1023.9 hPa WSW 0.3 km/h 3.2 km/h 89% 0 mm 0 W/m2
05:29 8.8 °C 7.2 °C 1023.9 hPa WSW 1.8 km/h 4.8 km/h 89% 0 mm 0 W/m2
05:34 8.8 °C 7.1 °C 1023.9 hPa SSE 2.1 km/h 8 km/h 89% 0 mm 0 W/m2
05:39 8.9 °C 7.3 °C 1023.6 hPa ESE 4 km/h 9.7 km/h 89.5% 0 mm 0 W/m2
05:44 8.9 °C 7.3 °C 1023.6 hPa ESE 2.9 km/h 4.8 km/h 90% 0 mm 0 W/m2
05:49 8.9 °C 7.3 °C 1023.6 hPa ESE 4.8 km/h 8 km/h 90% 0 mm 0 W/m2
05:54 8.9 °C 7.3 °C 1023.6 hPa ESE 4 km/h 8 km/h 90% 0 mm 0 W/m2
05:59 8.9 °C 7.3 °C 1023.6 hPa ESE 2.7 km/h 8 km/h 90% 0 mm 0 W/m2
06:04 8.9 °C 7.3 °C 1023.2 hPa ESE 3.2 km/h 6.4 km/h 90% 0 mm 0 W/m2
06:09 8.8 °C 7.2 °C 1023.2 hPa ESE 4.5 km/h 8 km/h 90% 0 mm 0 W/m2
06:14 8.9 °C 7.3 °C 1023.2 hPa SE 2.7 km/h 8 km/h 90% 0 mm 0 W/m2
06:19 8.9 °C 7.3 °C 1023.6 hPa SE 1.3 km/h 8 km/h 90% 0 mm 0 W/m2
06:24 8.9 °C 7.3 °C 1023.6 hPa SE 2.6 km/h 6.4 km/h 90% 0 mm 0 W/m2
06:29 8.9 °C 7.3 °C 1023.6 hPa ESE 4.2 km/h 8 km/h 90% 0 mm 0 W/m2
06:34 8.7 °C 7.2 °C 1023.6 hPa East 1.9 km/h 6.4 km/h 90% 0 mm 0 W/m2
06:39 8.7 °C 7.2 °C 1023.2 hPa ESE 2.3 km/h 6.4 km/h 90% 0 mm 0 W/m2
06:44 8.6 °C 7.1 °C 1023.2 hPa ESE 2.1 km/h 4.8 km/h 90% 0 mm 0 W/m2
06:49 8.6 °C 7.1 °C 1023.2 hPa ESE 1.6 km/h 4.8 km/h 90% 0 mm 0 W/m2
06:54 8.5 °C 7 °C 1023.2 hPa ESE 1.9 km/h 4.8 km/h 90% 0 mm 0 W/m2
06:59 8.4 °C 6.9 °C 1023.2 hPa ESE 1 km/h 6.4 km/h 90% 0 mm 0 W/m2
07:04 8.4 °C 6.9 °C 1023.2 hPa Calm   3.2 km/h 90% 0 mm 0 W/m2
07:09 8.4 °C 6.9 °C 1023.6 hPa Calm   1.6 km/h 90% 0 mm 0 W/m2
07:14 8.3 °C 6.8 °C 1023.2 hPa ESE 1.8 km/h 4.8 km/h 90% 0 mm 0 W/m2
07:19 8.2 °C 6.7 °C 1023.2 hPa ESE 2.6 km/h 4.8 km/h 90% 0 mm 0 W/m2
07:24 8.3 °C 6.8 °C 1023.2 hPa ESE 2.4 km/h 4.8 km/h 90% 0 mm 0 W/m2
07:29 8.3 °C 6.8 °C 1023.2 hPa ESE 1.9 km/h 4.8 km/h 90.2% 0 mm 0 W/m2
07:33 8.4 °C 7 °C 1023.2 hPa SE 3.2 km/h 6.4 km/h 91% 0 mm 0 W/m2
07:39 8.7 °C 7.2 °C 1023.2 hPa South 3.2 km/h 8 km/h 90.4% 0 mm 0 W/m2
07:44 8.7 °C 7.2 °C 1023.2 hPa South 2.1 km/h 8 km/h 90% 0 mm 0 W/m2
07:49 8.8 °C 7.2 °C 1023.2 hPa South 2.4 km/h 6.4 km/h 90% 0 mm 0 W/m2
07:54 8.8 °C 7.3 °C 1023.2 hPa South 1.1 km/h 3.2 km/h 90.8% 0 mm 5 W/m2
07:59 8.7 °C 7.2 °C 1023.2 hPa SSE 3.5 km/h 6.4 km/h 90% 0 mm 7 W/m2
08:04 8.7 °C 7.2 °C 1023.2 hPa SE 2.6 km/h 6.4 km/h 90% 0 mm 11 W/m2
08:09 8.7 °C 7.2 °C 1023.2 hPa SE 2.6 km/h 8 km/h 90% 0 mm 14 W/m2
08:14 8.8 °C 7.2 °C 1023.2 hPa SE 2.6 km/h 4.8 km/h 90% 0 mm 18 W/m2
08:19 8.8 °C 7.3 °C 1023.2 hPa SE 2.6 km/h 6.4 km/h 90.2% 0 mm 23 W/m2
08:24 8.8 °C 7.3 °C 1023.2 hPa SE 3.2 km/h 6.4 km/h 90.6% 0 mm 26 W/m2
08:29 8.7 °C 7.3 °C 1023.2 hPa ESE 5.5 km/h 8 km/h 91% 0 mm 35 W/m2
08:34 8.8 °C 7.4 °C 1022.9 hPa East 4.8 km/h 11.3 km/h 91% 0 mm 47 W/m2
08:39 9 °C 7.6 °C 1022.9 hPa ESE 3.4 km/h 11.3 km/h 91% 0 mm 49 W/m2
08:44 9.2 °C 7.8 °C 1022.9 hPa ESE 6 km/h 11.3 km/h 91% 0 mm 58 W/m2
08:49 9.3 °C 7.9 °C 1022.9 hPa ESE 6 km/h 11.3 km/h 91% 0 mm 60 W/m2
08:54 9.6 °C 8.2 °C 1022.9 hPa SE 6.8 km/h 12.9 km/h 91% 0 mm 56 W/m2
08:59 9.6 °C 8.2 °C 1022.9 hPa SE 2.7 km/h 11.3 km/h 91% 0 mm 58 W/m2
09:04 9.6 °C 8.2 °C 1023.2 hPa SE 3.9 km/h 8 km/h 91% 0 mm 58 W/m2
09:09 9.7 °C 8.3 °C 1023.2 hPa SE 4.5 km/h 11.3 km/h 91% 0 mm 58 W/m2
09:14 9.7 °C 8.3 °C 1022.9 hPa SE 6 km/h 11.3 km/h 91% 0 mm 62 W/m2
09:19 9.7 °C 8.3 °C 1022.9 hPa SE 7.2 km/h 9.7 km/h 91% 0 mm 67 W/m2
09:24 9.8 °C 8.2 °C 1022.9 hPa SSE 8.4 km/h 12.9 km/h 90.4% 0 mm 70 W/m2
09:29 9.9 °C 8.3 °C 1022.9 hPa SSE 7.9 km/h 14.5 km/h 90% 0 mm 74 W/m2
09:34 10.1 °C 8.5 °C 1022.9 hPa SSE 8.7 km/h 16.1 km/h 90% 0 mm 83 W/m2
09:39 10.3 °C 8.7 °C 1022.9 hPa SSE 7.6 km/h 17.7 km/h 90% 0 mm 84 W/m2
09:44 10.4 °C 8.7 °C 1022.9 hPa South 7.7 km/h 19.3 km/h 89.4% 0 mm 84 W/m2
09:49 10.5 °C 8.8 °C 1022.9 hPa South 7.7 km/h 19.3 km/h 89% 0 mm 88 W/m2
09:54 10.6 °C 8.8 °C 1022.9 hPa SSE 8.4 km/h 16.1 km/h 88.6% 0 mm 91 W/m2
09:59 10.7 °C 8.8 °C 1022.9 hPa South 7.9 km/h 14.5 km/h 88% 0 mm 95 W/m2
10:04 10.7 °C 8.8 °C 1022.9 hPa South 9 km/h 16.1 km/h 88% 0 mm 100 W/m2
10:09 10.8 °C 8.8 °C 1022.9 hPa SSE 9 km/h 14.5 km/h 87.4% 0 mm 105 W/m2
10:14 10.8 °C 8.8 °C 1022.9 hPa SSE 7.7 km/h 17.7 km/h 87% 0 mm 104 W/m2
10:19 10.9 °C 8.8 °C 1022.9 hPa South 6 km/h 17.7 km/h 87% 0 mm 104 W/m2
10:24 10.9 °C 8.8 °C 1022.9 hPa SSE 7.6 km/h 14.5 km/h 87% 0 mm 104 W/m2
10:29 11.1 °C 8.8 °C 1022.9 hPa South 15 km/h 22.5 km/h 86.4% 0 mm 109 W/m2
10:34 11.1 °C 8.8 °C 1022.6 hPa SSE 6.4 km/h 17.7 km/h 86% 0 mm 113 W/m2
10:39 11.1 °C 8.8 °C 1022.6 hPa SSE 7.7 km/h 11.3 km/h 86% 0 mm 113 W/m2
10:44 11.2 °C 8.9 °C 1022.6 hPa SSE 6.3 km/h 12.9 km/h 86% 0 mm 113 W/m2
10:49 11.2 °C 8.9 °C 1022.6 hPa South 8 km/h 19.3 km/h 86% 0 mm 116 W/m2
10:54 11.2 °C 8.9 °C 1022.6 hPa SSE 7.7 km/h 19.3 km/h 86% 0 mm 118 W/m2
10:59 11.3 °C 8.9 °C 1022.2 hPa SSE 8.5 km/h 19.3 km/h 85.6% 0 mm 118 W/m2
11:04 11.3 °C 8.9 °C 1022.2 hPa SSE 8.4 km/h 19.3 km/h 85% 0 mm 116 W/m2
11:09 11.4 °C 9 °C 1022.2 hPa South 8.5 km/h 24.1 km/h 85% 0 mm 113 W/m2
11:14 11.6 °C 9.2 °C 1022.2 hPa South 8.4 km/h 24.1 km/h 85% 0 mm 107 W/m2
11:19 11.6 °C 9.2 °C 1021.9 hPa SSE 11.6 km/h 20.9 km/h 85% 0 mm 98 W/m2
11:24 11.7 °C 9.1 °C 1021.9 hPa SSE 14.6 km/h 33.8 km/h 84% 0 mm 97 W/m2
11:29 11.7 °C 9.1 °C 1021.9 hPa South 13.8 km/h 29 km/h 84% 0 mm 93 W/m2
11:34 11.8 °C 9.2 °C 1021.9 hPa South 9.2 km/h 20.9 km/h 84% 0 mm 95 W/m2
11:39 11.8 °C 9.2 °C 1021.6 hPa South 9 km/h 16.1 km/h 84% 0 mm 97 W/m2
11:44 11.8 °C 9.1 °C 1021.6 hPa South 13.2 km/h 29 km/h 83.2% 0 mm 95 W/m2
11:49 11.9 °C 9.1 °C 1021.6 hPa SSW 9 km/h 25.7 km/h 83% 0 mm 86 W/m2
11:54 11.9 °C 9.1 °C 1021.6 hPa South 12.6 km/h 24.1 km/h 82.8% 0 mm 70 W/m2
11:59 11.9 °C 8.9 °C 1021.6 hPa SSW 15.4 km/h 25.7 km/h 82% 0 mm 60 W/m2
12:04 11.9 °C 8.9 °C 1021.6 hPa SSE 11.1 km/h 29 km/h 82% 0 mm 63 W/m2
12:09 11.9 °C 8.9 °C 1021.6 hPa SSE 12.1 km/h 19.3 km/h 82% 0 mm 70 W/m2
12:14 11.9 °C 8.9 °C 1021.6 hPa South 12.6 km/h 20.9 km/h 82% 0 mm 72 W/m2
12:19 11.9 °C 8.9 °C 1021.2 hPa South 8 km/h 20.9 km/h 82% 0 mm 70 W/m2
12:24 11.9 °C 8.9 °C 1021.2 hPa SSE 9.7 km/h 24.1 km/h 82% 0 mm 70 W/m2
12:29 11.9 °C 8.9 °C 1021.2 hPa SSE 13.2 km/h 22.5 km/h 82% 0 mm 58 W/m2
12:34 11.9 °C 8.9 °C 1021.2 hPa SSE 13.8 km/h 22.5 km/h 82% 0 mm 54 W/m2
12:39 12 °C 9.1 °C 1020.9 hPa SSE 11.3 km/h 17.7 km/h 82.4% 0 mm 54 W/m2
12:44 11.9 °C 9.2 °C 1020.9 hPa South 10.3 km/h 20.9 km/h 83% 0 mm 54 W/m2
12:49 11.9 °C 9.1 °C 1020.9 hPa South 14.2 km/h 25.7 km/h 83% 0 mm 53 W/m2
12:54 11.9 °C 9.2 °C 1020.9 hPa South 9.7 km/h 24.1 km/h 83% 0 mm 54 W/m2
12:59 11.9 °C 9.1 °C 1020.9 hPa South 11.9 km/h 29 km/h 83% 0 mm 53 W/m2
13:04 11.9 °C 9.2 °C 1020.5 hPa SSE 9 km/h 29 km/h 83% 0 mm 53 W/m2
13:09 11.9 °C 9.1 °C 1020.5 hPa SSE 14.2 km/h 32.2 km/h 83% 0 mm 51 W/m2
13:14 11.9 °C 9.2 °C 1020.5 hPa SSE 10.1 km/h 20.9 km/h 83.2% 0 mm 54 W/m2
13:19 11.8 °C 9.3 °C 1020.2 hPa SE 8 km/h 19.3 km/h 84% 0 mm 54 W/m2
13:24 11.8 °C 9.2 °C 1020.2 hPa South 11.3 km/h 24.1 km/h 84% 0 mm 54 W/m2
13:29 11.7 °C 9.2 °C 1020.2 hPa SSE 11.7 km/h 20.9 km/h 84.8% 0 mm 51 W/m2
13:34 11.7 °C 9.3 °C 1020.2 hPa SE 11.7 km/h 17.7 km/h 85% 0 mm 53 W/m2
13:39 11.7 °C 9.3 °C 1020.2 hPa SE 10.3 km/h 22.5 km/h 85.4% 0 mm 51 W/m2
13:44 11.6 °C 9.3 °C 1020.2 hPa SSE 8.9 km/h 16.1 km/h 86% 0 mm 35 W/m2
13:49 11.6 °C 9.3 °C 1020.2 hPa SE 9.2 km/h 19.3 km/h 86% 0 mm 35 W/m2
13:54 11.6 °C 9.3 °C 1020.2 hPa SSE 11.3 km/h 19.3 km/h 86% 0 mm 44 W/m2
13:59 11.6 °C 9.3 °C 1020.2 hPa SSE 9 km/h 19.3 km/h 86% 0 mm 40 W/m2
14:04 11.6 °C 9.3 °C 1020.2 hPa SSE 10 km/h 17.7 km/h 86% 0 mm 51 W/m2
14:09 11.6 °C 9.3 °C 1020.2 hPa SSE 6.4 km/h 12.9 km/h 86% 0 mm 44 W/m2
14:14 11.6 °C 9.3 °C 1019.9 hPa South 10.3 km/h 20.9 km/h 86% 0 mm 42 W/m2
14:19 11.6 °C 9.3 °C 1019.9 hPa SSE 8.4 km/h 16.1 km/h 86% 0 mm 39 W/m2
14:24 11.6 °C 9.3 °C 1019.9 hPa SE 7.2 km/h 19.3 km/h 86% 0 mm 37 W/m2
14:29 11.5 °C 9.2 °C 1019.9 hPa South 10.6 km/h 24.1 km/h 86% 0 mm 32 W/m2
14:34 11.4 °C 9.2 °C 1019.5 hPa SSE 10 km/h 25.7 km/h 86% 0 mm 26 W/m2
14:39 11.4 °C 9.1 °C 1019.5 hPa South 7.1 km/h 25.7 km/h 86% 0 mm 18 W/m2
14:44 11.4 °C 9.1 °C 1019.9 hPa South 16.7 km/h 27.4 km/h 86% 0 mm 14 W/m2
14:49 11.4 °C 9.1 °C 1019.5 hPa SSE 11.3 km/h 27.4 km/h 86% 0 mm 23 W/m2
14:54 11.3 °C 9.1 °C 1019.5 hPa SE 9.7 km/h 16.1 km/h 86% 0 mm 21 W/m2
14:59 11.3 °C 9 °C 1019.2 hPa SSE 12.2 km/h 20.9 km/h 86% 0 mm 21 W/m2
15:04 11.3 °C 9 °C 1019.2 hPa SE 15.1 km/h 25.7 km/h 86% 0 mm 19 W/m2
15:09 11.3 °C 9 °C 1019.2 hPa South 8.7 km/h 19.3 km/h 86% 0 mm 18 W/m2
15:14 11.3 °C 9 °C 1019.2 hPa SSE 9.3 km/h 20.9 km/h 86% 0 mm 18 W/m2
15:19 11.3 °C 9.1 °C 1018.8 hPa SSW 13.7 km/h 27.4 km/h 86% 0 mm 18 W/m2
15:24 11.4 °C 9.1 °C 1018.8 hPa SE 12.2 km/h 24.1 km/h 86% 0 mm 18 W/m2
15:29 11.4 °C 9.1 °C 1018.5 hPa SSE 9.3 km/h 17.7 km/h 85.6% 0 mm 12 W/m2
15:34 11.3 °C 9.1 °C 1018.5 hPa SSE 12.6 km/h 24.1 km/h 86% 0 mm 9 W/m2
15:39 11.3 °C 9.1 °C 1018.5 hPa SE 10.9 km/h 17.7 km/h 86% 0 mm 7 W/m2
15:44 11.3 °C 9 °C 1018.2 hPa SE 13.5 km/h 20.9 km/h 86% 0 mm 7 W/m2
15:49 11.3 °C 9 °C 1018.2 hPa SSE 11.3 km/h 20.9 km/h 86% 0 mm 5 W/m2
15:54 11.3 °C 9 °C 1018.2 hPa SSE 11.6 km/h 20.9 km/h 86% 0 mm 0 W/m2
15:59 11.3 °C 9 °C 1018.2 hPa SE 13.5 km/h 29 km/h 86% 0 mm 0 W/m2
16:04 11.3 °C 9 °C 1018.2 hPa SE 10.6 km/h 29 km/h 86% 0 mm 0 W/m2
16:09 11.3 °C 9 °C 1018.2 hPa SSE 9.3 km/h 19.3 km/h 86% 0 mm 0 W/m2
16:14 11.3 °C 9 °C 1018.2 hPa SSE 8.7 km/h 19.3 km/h 86% 0 mm 0 W/m2
16:19 11.3 °C 9 °C 1018.2 hPa SSE 15.4 km/h 27.4 km/h 86% 0 mm 0 W/m2
16:24 11.4 °C 9.2 °C 1018.5 hPa South 9.7 km/h 30.6 km/h 86.4% 0 mm 0 W/m2
16:29 11.4 °C 9.2 °C 1018.5 hPa SSE 14.5 km/h 27.4 km/h 86.6% 0 mm 0 W/m2
16:34 11.4 °C 9.3 °C 1018.2 hPa South 15.1 km/h 24.1 km/h 87% 0 mm 0 W/m2
16:39 11.4 °C 9.3 °C 1017.8 hPa SSE 9.7 km/h 22.5 km/h 87% 0 mm 0 W/m2
16:44 11.4 °C 9.3 °C 1017.8 hPa SSE 15.4 km/h 25.7 km/h 87% 0 mm 0 W/m2
16:49 11.4 °C 9.3 °C 1017.8 hPa SSE 8.4 km/h 19.3 km/h 87% 0 mm 0 W/m2
16:54 11.4 °C 9.3 °C 1017.8 hPa SSE 9 km/h 24.1 km/h 87% 0 mm 0 W/m2
16:59 11.4 °C 9.3 °C 1017.8 hPa SSE 10 km/h 22.5 km/h 87% 0 mm 0 W/m2
17:04 11.4 °C 9.3 °C 1017.8 hPa SSE 7.7 km/h 24.1 km/h 87% 0 mm 0 W/m2
17:09 11.4 °C 9.3 °C 1017.5 hPa SSE 12.9 km/h 22.5 km/h 87% 0 mm 0 W/m2
17:14 11.5 °C 9.4 °C 1017.5 hPa SSE 10.3 km/h 19.3 km/h 87% 0 mm 0 W/m2
17:19 11.5 °C 9.4 °C 1017.5 hPa South 13.5 km/h 24.1 km/h 87% 0 mm 0 W/m2
17:24 11.5 °C 9.4 °C 1017.5 hPa SSE 10.6 km/h 17.7 km/h 87% 0 mm 0 W/m2
17:29 11.5 °C 9.4 °C 1017.5 hPa SSE 10.6 km/h 24.1 km/h 87% 0 mm 0 W/m2
17:34 11.6 °C 9.5 °C 1017.5 hPa SSE 9.3 km/h 25.7 km/h 87% 0 mm 0 W/m2
17:39 11.6 °C 9.5 °C 1017.2 hPa SSE 12.2 km/h 30.6 km/h 87% 0 mm 0 W/m2
17:44 11.6 °C 9.5 °C 1017.2 hPa SSE 11.6 km/h 25.7 km/h 87% 0 mm 0 W/m2
17:49 11.6 °C 9.5 °C 1016.8 hPa South 10.9 km/h 25.7 km/h 87.2% 0 mm 0 W/m2
17:54 11.6 °C 9.6 °C 1016.8 hPa SSE 16.3 km/h 29 km/h 87.6% 0 mm 0 W/m2
17:59 11.6 °C 9.7 °C 1017.2 hPa South 10.6 km/h 24.1 km/h 88% 0 mm 0 W/m2
18:04 11.6 °C 9.7 °C 1017.2 hPa SSE 13.2 km/h 19.3 km/h 88% 0 mm 0 W/m2
18:09 11.6 °C 9.7 °C 1017.2 hPa SSE 12.6 km/h 25.7 km/h 88% 0 mm 0 W/m2
18:14 11.7 °C 9.8 °C 1016.8 hPa South 9.5 km/h 27.4 km/h 88% 0 mm 0 W/m2
18:19 11.7 °C 9.7 °C 1016.8 hPa South 17.1 km/h 38.6 km/h 88% 0 mm 0 W/m2
18:24 11.7 °C 9.8 °C 1016.8 hPa SSE 15.4 km/h 35.4 km/h 88% 0 mm 0 W/m2
18:29 11.7 °C 9.8 °C 1016.8 hPa South 18 km/h 33.8 km/h 88% 0 mm 0 W/m2
18:34 11.6 °C 9.7 °C 1016.8 hPa SSE 15.3 km/h 33.8 km/h 88% 0 mm 0 W/m2
18:39 11.7 °C 9.7 °C 1016.8 hPa South 14.8 km/h 35.4 km/h 88% 0 mm 0 W/m2
18:44 11.7 °C 9.7 °C 1016.8 hPa SSE 12.2 km/h 30.6 km/h 88% 0 mm 0 W/m2
18:49 11.6 °C 9.7 °C 1016.5 hPa SSE 13.5 km/h 32.2 km/h 88% 0 mm 0 W/m2
18:54 11.6 °C 9.7 °C 1016.5 hPa SSE 16.1 km/h 37 km/h 88% 0 mm 0 W/m2
18:59 11.6 °C 9.7 °C 1016.5 hPa SSE 26.7 km/h 49.9 km/h 88% 0 mm 0 W/m2
19:04 11.6 °C 9.7 °C 1016.5 hPa South 16.4 km/h 35.4 km/h 88% 0 mm 0 W/m2
19:09 11.6 °C 9.7 °C 1016.5 hPa SSE 17.7 km/h 38.6 km/h 88% 0 mm 0 W/m2
19:14 11.7 °C 9.8 °C 1016.1 hPa SSE 13.5 km/h 30.6 km/h 88% 0 mm 0 W/m2
19:19 11.7 °C 9.8 °C 1016.1 hPa SSE 17.4 km/h 27.4 km/h 88% 0 mm 0 W/m2
19:24 11.8 °C 9.8 °C 1016.1 hPa SSE 15.8 km/h 35.4 km/h 88% 0 mm 0 W/m2
19:29 11.8 °C 9.9 °C 1015.8 hPa SSE 15.4 km/h 35.4 km/h 88% 0 mm 0 W/m2
19:34 11.8 °C 9.9 °C 1015.8 hPa South 17.7 km/h 33.8 km/h 88% 0 mm 0 W/m2
19:39 11.8 °C 9.9 °C 1015.8 hPa South 18.3 km/h 35.4 km/h 88% 0 mm 0 W/m2
19:44 11.9 °C 9.8 °C 1015.8 hPa South 16.1 km/h 33.8 km/h 87.4% 0 mm 0 W/m2
19:49 11.8 °C 9.7 °C 1015.5 hPa SSE 13.2 km/h 35.4 km/h 87% 0 mm 0 W/m2
19:54 11.8 °C 9.8 °C 1015.1 hPa SSE 16.7 km/h 30.6 km/h 87.4% 0 mm 0 W/m2
19:59 11.8 °C 9.8 °C 1015.1 hPa SSE 11.3 km/h 27.4 km/h 87.6% 0 mm 0 W/m2
20:04 11.7 °C 9.7 °C 1015.1 hPa SSE 18.3 km/h 32.2 km/h 87.6% 0 mm 0 W/m2
20:09 11.7 °C 9.8 °C 1014.8 hPa SSE 16.1 km/h 25.7 km/h 88% 0 mm 0 W/m2
20:14 11.7 °C 9.8 °C 1014.8 hPa SSE 13.2 km/h 33.8 km/h 88% 0 mm 0 W/m2
20:19 11.7 °C 9.7 °C 1014.8 hPa SSE 11.9 km/h 27.4 km/h 88% 0 mm 0 W/m2
20:24 11.5 °C 9.6 °C 1014.8 hPa SE 14 km/h 27.4 km/h 88% 0 mm 0 W/m2
20:29 11.3 °C 9.7 °C 1014.4 hPa SSE 14.2 km/h 29 km/h 89% 0 mm 0 W/m2
20:34 11.3 °C 9.6 °C 1014.4 hPa SSE 15.9 km/h 32.2 km/h 89% 0 mm 0 W/m2
20:39 11.2 °C 9.6 °C 1014.4 hPa SSE 14.2 km/h 32.2 km/h 90% 0 mm 0 W/m2
20:44 11.2 °C 9.6 °C 1014.4 hPa SSE 14 km/h 29 km/h 90% 0 mm 0 W/m2
20:49 11.2 °C 9.7 °C 1014.1 hPa South 17.4 km/h 32.2 km/h 90.4% 0 mm 0 W/m2
20:54 11.2 °C 9.8 °C 1014.1 hPa SSE 10.6 km/h 24.1 km/h 91% 0.25 mm 0 W/m2
20:59 11.2 °C 9.7 °C 1014.1 hPa SSE 13.2 km/h 35.4 km/h 91% 0.25 mm 0 W/m2
21:04 11.2 °C 9.8 °C 1014.1 hPa SSE 12.2 km/h 37 km/h 91% 0.51 mm 0 W/m2
21:09 11.2 °C 9.8 °C 1014.1 hPa SSE 13.8 km/h 37 km/h 91.6% 0.51 mm 0 W/m2
21:13 11.2 °C 9.9 °C 1014.1 hPa SSE 10 km/h 25.7 km/h 92% 0.51 mm 0 W/m2
21:19 11.3 °C 10 °C 1014.1 hPa South 15.4 km/h 32.2 km/h 92% 0.51 mm 0 W/m2
21:24 11.3 °C 10 °C 1014.1 hPa SSE 14.6 km/h 27.4 km/h 92% 0.51 mm 0 W/m2
21:29 11.4 °C 10.1 °C 1014.1 hPa SSE 14.2 km/h 29 km/h 92% 0.51 mm 0 W/m2
21:34 11.4 °C 10.2 °C 1014.1 hPa SSE 12.9 km/h 27.4 km/h 92% 0.51 mm 0 W/m2
21:39 11.6 °C 10.3 °C 1014.1 hPa South 14.5 km/h 29 km/h 92% 0.76 mm 0 W/m2
21:44 11.6 °C 10.3 °C 1013.8 hPa SSE 13.2 km/h 30.6 km/h 92% 0.76 mm 0 W/m2
21:49 11.6 °C 10.3 °C 1013.8 hPa SSE 11.4 km/h 25.7 km/h 92% 1.02 mm 0 W/m2
21:54 11.6 °C 10.3 °C 1013.8 hPa SSE 9.7 km/h 22.5 km/h 92% 1.27 mm 0 W/m2
21:59 11.6 °C 10.3 °C 1013.4 hPa SSE 11.3 km/h 27.4 km/h 92% 1.27 mm 0 W/m2
22:04 11.7 °C 10.4 °C 1013.4 hPa SSE 16.7 km/h 27.4 km/h 92% 1.27 mm 0 W/m2
22:09 11.7 °C 10.4 °C 1013.8 hPa South 12.6 km/h 25.7 km/h 92% 1.52 mm 0 W/m2
22:14 11.7 °C 10.4 °C 1013.4 hPa SSE 11.4 km/h 29 km/h 92% 1.52 mm 0 W/m2
22:19 11.7 °C 10.4 °C 1013.4 hPa SSE 9.2 km/h 25.7 km/h 92% 1.52 mm 0 W/m2
22:24 11.7 °C 10.4 °C 1013.4 hPa SSE 15.3 km/h 27.4 km/h 92% 1.78 mm 0 W/m2
22:29 11.7 °C 10.4 °C 1013.4 hPa South 7.7 km/h 24.1 km/h 92% 1.78 mm 0 W/m2
22:34 11.7 °C 10.4 °C 1013.4 hPa South 8.9 km/h 27.4 km/h 92% 2.03 mm 0 W/m2
22:39 11.7 °C 10.4 °C 1013.4 hPa South 8 km/h 27.4 km/h 92.2% 1.78 mm 0 W/m2
22:44 11.8 °C 10.6 °C 1013.4 hPa South 11.3 km/h 27.4 km/h 92.6% 2.03 mm 0 W/m2
22:49 11.8 °C 10.6 °C 1013.4 hPa South 11.4 km/h 27.4 km/h 92% 2.03 mm 0 W/m2
22:54 11.9 °C 10.6 °C 1013.4 hPa South 10.6 km/h 22.5 km/h 92% 2.03 mm 0 W/m2
22:59 11.9 °C 10.7 °C 1013.4 hPa South 10.5 km/h 25.7 km/h 92.2% 2.29 mm 0 W/m2
23:04 12 °C 10.8 °C 1013.4 hPa SSW 12.2 km/h 22.5 km/h 92.8% 2.29 mm 0 W/m2
23:09 12.1 °C 11 °C 1013.4 hPa South 7.7 km/h 20.9 km/h 93% 2.29 mm 0 W/m2
23:14 12.1 °C 11 °C 1013.4 hPa SSW 12.1 km/h 20.9 km/h 93% 2.29 mm 0 W/m2
23:19 12.1 °C 11 °C 1013.4 hPa SSW 8.7 km/h 22.5 km/h 93% 2.54 mm 0 W/m2
23:24 12.1 °C 11 °C 1013.4 hPa SSW 7.4 km/h 22.5 km/h 93% 2.54 mm 0 W/m2
23:29 12.1 °C 11 °C 1013.4 hPa SW 7.9 km/h 16.1 km/h 93% 2.54 mm 0 W/m2
23:34 12.2 °C 11.1 °C 1013.4 hPa SSW 8 km/h 14.5 km/h 93% 2.79 mm 0 W/m2
23:39 12.2 °C 11.1 °C 1013.4 hPa SSW 12.2 km/h 22.5 km/h 93% 2.79 mm 0 W/m2
23:44 12.2 °C 11.1 °C 1013.4 hPa South 5.1 km/h 16.1 km/h 93% 2.79 mm 0 W/m2
23:49 12.2 °C 11.1 °C 1013.4 hPa South 6 km/h 11.3 km/h 93% 2.79 mm 0 W/m2
23:54 12.3 °C 11.2 °C 1013.4 hPa South 7.1 km/h 12.9 km/h 93% 2.79 mm 0 W/m2
23:59 12.3 °C 11.2 °C 1013.4 hPa SW 5.3 km/h 11.3 km/h 93% 2.54 mm 0 W/m2
Bath Spa Weather
Compliments of Weather Underground - 2 mb